Time;durP1;ratioP1;P1;durP2;ratioP2;P2;SDS_P1;SDS_P2;PMS_P1;PMS_P2;Temp;Humidity;BMP_temperature;BMP_pressure;BME280_temperature;BME280_humidity;BME280_pressure;Samples;Min_cycle;Max_cycle;Signal;HPM_P1;HPM_P2
2023/03/24 00:12:24;;;;;;;;;;;;;;;14.83;59.88;98922.75;1086248;54;19939;-80
2023/03/24 00:13:43;;;;;;;;;;;;;;;14.85;59.59;98922.53;1085996;54;19962;-78
2023/03/24 00:14:53;;;;;;;;;;;;;;;14.86;59.84;98934.97;1086699;54;19950;-77
2023/03/24 00:15:54;;;;;;;;;;;;;;;14.83;59.89;98936.19;1086494;54;20430;-79
2023/03/24 00:17:00;;;;;;;;;;;;;;;14.79;59.91;98943.00;1086273;54;20062;-79
2023/03/24 00:18:01;;;;;;;;;;;;;;;14.75;60.26;98934.50;1086471;54;19977;-81
2023/03/24 00:19:17;;;;;;;;;;;;;;;14.68;60.21;98930.94;1086364;54;19947;-79
2023/03/24 00:20:21;;;;;;;;;;;;;;;14.69;60.57;98929.94;1086047;54;20477;-79
2023/03/24 00:21:27;;;;;;;;;;;;;;;14.60;60.96;98929.22;1086134;54;19998;-80
2023/03/24 00:22:28;;;;;;;;;;;;;;;14.68;60.48;98930.94;1086502;54;19946;-79
2023/03/24 00:23:35;;;;;;;;;;;;;;;14.72;60.62;98926.00;1086245;54;19945;-78
2023/03/24 00:24:39;;;;;;;;;;;;;;;14.73;60.26;98916.91;1085374;54;19958;-79
2023/03/24 00:26:14;;;;;;;;;;;;;;;14.78;60.32;98928.72;1085526;54;19950;-78
2023/03/24 00:27:17;;;;;;;;;;;;;;;14.79;60.42;98921.47;1086063;54;19947;-78
2023/03/24 00:36:43;;;;;;;;;;;;;;;14.79;60.44;98922.31;1084571;39;20989;-79
2023/03/24 00:37:48;;;;;;;;;;;;;;;14.72;60.48;98917.94;1086308;39;20028;-79
2023/03/24 00:38:52;;;;;;;;;;;;;;;14.82;59.97;98910.31;1085455;54;20016;-80
2023/03/24 00:39:54;;;;;;;;;;;;;;;14.78;60.01;98906.38;1085594;39;20989;-79
2023/03/24 00:40:58;;;;;;;;;;;;;;;14.77;59.88;98907.41;1085086;54;19947;-80
2023/03/24 00:42:09;;;;;;;;;;;;;;;14.72;60.46;98899.94;1085972;54;19970;-78
2023/03/24 00:43:14;;;;;;;;;;;;;;;14.82;60.10;98889.66;1086402;46;19973;-80
2023/03/24 00:44:28;;;;;;;;;;;;;;;14.80;59.80;98891.69;1086336;54;19953;-78
2023/03/24 00:45:33;;;;;;;;;;;;;;;14.86;59.65;98895.47;1085782;54;20451;-79
2023/03/24 00:46:38;;;;;;;;;;;;;;;14.89;59.36;98883.47;1085923;54;19950;-79
2023/03/24 00:47:48;;;;;;;;;;;;;;;14.98;59.23;98868.78;1085805;54;20007;-78
2023/03/24 00:49:00;;;;;;;;;;;;;;;14.91;59.22;98876.84;1085134;54;19947;-78
2023/03/24 00:50:03;;;;;;;;;;;;;;;14.94;59.49;98875.59;1085356;54;20028;-78
2023/03/24 00:51:09;;;;;;;;;;;;;;;14.97;59.17;98873.31;1087183;39;20381;-78
2023/03/24 00:52:11;;;;;;;;;;;;;;;15.01;59.11;98881.00;1085852;54;20446;-78
2023/03/24 00:53:19;;;;;;;;;;;;;;;15.01;59.22;98873.78;1085967;54;19951;-79
2023/03/24 00:54:29;;;;;;;;;;;;;;;15.06;58.92;98871.28;1085470;54;19946;-79
2023/03/24 00:55:45;;;;;;;;;;;;;;;15.05;58.89;98869.63;1085727;54;19947;-78
2023/03/24 00:56:48;;;;;;;;;;;;;;;15.07;58.82;98854.13;1086872;39;20381;-80
2023/03/24 00:59:30;;;;;;;;;;;;;;;15.01;59.28;98867.56;1085705;54;20034;-78
2023/03/24 01:00:32;;;;;;;;;;;;;;;15.04;58.80;98864.47;1085537;54;19947;-79
2023/03/24 01:01:39;;;;;;;;;;;;;;;15.04;59.23;98864.47;1085875;54;19987;-78
2023/03/24 01:02:40;;;;;;;;;;;;;;;15.01;59.18;98854.94;1085661;54;19938;-79
2023/03/24 01:03:49;;;;;;;;;;;;;;;14.97;59.00;98859.88;1085463;54;19958;-78
2023/03/24 01:04:56;;;;;;;;;;;;;;;15.00;59.12;98861.34;1085482;54;20434;-79
2023/03/24 01:06:14;;;;;;;;;;;;;;;15.02;58.70;98856.56;1085378;54;19970;-79
2023/03/24 01:07:19;;;;;;;;;;;;;;;14.97;58.56;98848.28;1086076;54;19946;-79
2023/03/24 01:08:24;;;;;;;;;;;;;;;15.03;58.63;98842.09;1085156;54;19951;-79
2023/03/24 01:09:28;;;;;;;;;;;;;;;14.98;58.34;98852.66;1085402;54;19945;-79
2023/03/24 01:10:31;;;;;;;;;;;;;;;15.04;58.24;98846.44;1085431;54;19946;-79
2023/03/24 01:11:38;;;;;;;;;;;;;;;15.10;58.16;98842.09;1085661;54;19949;-79
2023/03/24 01:12:39;;;;;;;;;;;;;;;15.08;58.26;98842.31;1085103;54;20141;-79
2023/03/24 01:13:44;;;;;;;;;;;;;;;15.12;58.18;98834.66;1085518;54;19951;-79
2023/03/24 01:14:46;;;;;;;;;;;;;;;15.11;57.85;98833.81;1085341;54;19966;-79
2023/03/24 01:15:50;;;;;;;;;;;;;;;15.15;57.96;98838.81;1086763;54;19981;-78
2023/03/24 01:16:52;;;;;;;;;;;;;;;15.09;57.47;98835.91;1086952;54;19971;-79
2023/03/24 01:17:56;;;;;;;;;;;;;;;15.12;57.83;98829.28;1085467;54;19954;-79
2023/03/24 01:18:58;;;;;;;;;;;;;;;15.16;57.54;98830.50;1085421;54;19938;-80
2023/03/24 01:20:06;;;;;;;;;;;;;;;15.18;57.78;98830.34;1085119;54;19951;-79
2023/03/24 01:21:07;;;;;;;;;;;;;;;15.18;57.89;98824.94;1085199;54;19942;-77
2023/03/24 01:22:11;;;;;;;;;;;;;;;15.17;57.78;98818.72;1085103;54;20031;-79
2023/03/24 01:23:13;;;;;;;;;;;;;;;15.05;57.52;98821.19;1085390;47;19950;-78
2023/03/24 01:24:20;;;;;;;;;;;;;;;15.12;57.64;98823.91;1087640;54;20002;-78
2023/03/24 01:25:22;;;;;;;;;;;;;;;15.12;58.38;98824.72;1087536;54;19951;-79
2023/03/24 01:26:31;;;;;;;;;;;;;;;15.07;58.06;98826.34;1087407;54;19990;-78
2023/03/24 01:27:32;;;;;;;;;;;;;;;15.07;58.04;98823.66;1085750;54;19977;-77
2023/03/24 01:28:42;;;;;;;;;;;;;;;15.09;57.92;98818.91;1085004;54;19946;-78
2023/03/24 01:29:43;;;;;;;;;;;;;;;15.12;57.75;98813.94;1084996;54;19950;-77
2023/03/24 01:30:51;;;;;;;;;;;;;;;15.09;58.01;98814.38;1084817;54;20061;-79
2023/03/24 01:31:52;;;;;;;;;;;;;;;15.04;58.00;98816.84;1084621;54;19963;-80
2023/03/24 01:32:56;;;;;;;;;;;;;;;15.02;58.33;98812.69;1084925;54;19946;-78
2023/03/24 01:33:57;;;;;;;;;;;;;;;15.06;58.04;98812.09;1084770;54;20474;-78
2023/03/24 01:35:01;;;;;;;;;;;;;;;14.98;58.05;98809.59;1084958;54;19939;-79
2023/03/24 01:36:03;;;;;;;;;;;;;;;14.97;58.21;98799.84;1084989;46;20489;-77
2023/03/24 01:37:07;;;;;;;;;;;;;;;14.94;58.32;98805.63;1084863;54;19951;-78
2023/03/24 01:38:12;;;;;;;;;;;;;;;14.92;57.91;98803.16;1084900;54;19950;-79
2023/03/24 01:39:20;;;;;;;;;;;;;;;14.97;58.06;98794.47;1084776;54;20425;-78
2023/03/24 01:40:23;;;;;;;;;;;;;;;15.01;58.02;98800.28;1085332;54;19951;-80
2023/03/24 01:41:28;;;;;;;;;;;;;;;15.00;58.11;98799.47;1084706;54;21032;-78
2023/03/24 01:42:30;;;;;;;;;;;;;;;14.93;58.33;98804.81;1084894;54;20445;-78
2023/03/24 01:43:35;;;;;;;;;;;;;;;14.91;58.49;98806.88;1085147;54;19970;-79
2023/03/24 01:44:37;;;;;;;;;;;;;;;14.89;58.15;98810.81;1085431;54;19951;-79
2023/03/24 01:45:43;;;;;;;;;;;;;;;14.85;58.12;98807.69;1085707;54;19953;-78
2023/03/24 01:46:47;;;;;;;;;;;;;;;14.88;58.02;98806.47;1085363;54;19946;-79
2023/03/24 01:47:49;;;;;;;;;;;;;;;14.85;58.05;98798.78;1085799;39;20373;-78
2023/03/24 01:48:54;;;;;;;;;;;;;;;14.87;58.15;98804.78;1085514;54;19947;-79
2023/03/24 01:50:03;;;;;;;;;;;;;;;14.90;58.14;98793.63;1085640;54;19978;-78
2023/03/24 02:34:42;;;;;;;;;;;;;;;14.98;58.37;98753.09;1085029;39;20344;-78
2023/03/24 02:36:02;;;;;;;;;;;;;;;15.03;58.15;98757.84;1085329;54;19950;-79
2023/03/24 02:37:21;;;;;;;;;;;;;;;15.01;58.14;98752.69;1085194;54;20015;-79
2023/03/24 02:38:37;;;;;;;;;;;;;;;14.97;58.49;98767.56;1085219;54;19947;-77
2023/03/24 02:39:55;;;;;;;;;;;;;;;15.01;58.18;98758.06;1084192;54;19977;-77
2023/03/24 02:41:00;;;;;;;;;;;;;;;14.97;58.12;98764.88;1085383;39;20167;-79
2023/03/24 02:42:09;;;;;;;;;;;;;;;14.96;58.09;98755.13;1084636;54;19946;-78
2023/03/24 02:43:16;;;;;;;;;;;;;;;14.97;57.94;98763.00;1084982;54;19974;-77
2023/03/24 02:44:22;;;;;;;;;;;;;;;14.95;58.00;98758.88;1085409;54;19951;-79
2023/03/24 02:45:26;;;;;;;;;;;;;;;14.94;58.03;98762.59;1084697;54;19946;-77
2023/03/24 02:46:34;;;;;;;;;;;;;;;14.91;58.06;98749.56;1085177;54;20528;-78
2023/03/24 02:47:40;;;;;;;;;;;;;;;14.96;58.35;98747.06;1085099;54;19942;-78
2023/03/24 02:48:50;;;;;;;;;;;;;;;14.94;58.67;98751.81;1085208;54;19962;-77
2023/03/24 02:49:55;;;;;;;;;;;;;;;14.94;58.86;98751.81;1085523;54;19947;-78
2023/03/24 02:51:05;;;;;;;;;;;;;;;14.89;59.04;98749.75;1085378;54;19954;-80
2023/03/24 02:52:15;;;;;;;;;;;;;;;14.87;59.34;98749.16;1085418;54;19975;-78
2023/03/24 02:53:22;;;;;;;;;;;;;;;14.84;59.16;98757.63;1085841;39;20636;-79
2023/03/24 02:54:31;;;;;;;;;;;;;;;14.90;59.29;98740.63;1085934;39;20421;-79
2023/03/24 02:55:41;;;;;;;;;;;;;;;14.86;59.42;98760.94;1085874;54;19946;-78
2023/03/24 02:56:49;;;;;;;;;;;;;;;14.85;59.06;98748.50;1086198;31;20456;-79
2023/03/24 02:57:53;;;;;;;;;;;;;;;14.91;59.25;98744.19;1084798;54;19946;-78
2023/03/24 02:59:03;;;;;;;;;;;;;;;14.89;59.50;98744.38;1085768;54;19965;-78
2023/03/24 03:00:09;;;;;;;;;;;;;;;14.91;59.13;98746.88;1085861;54;20021;-79
2023/03/24 03:01:15;;;;;;;;;;;;;;;14.91;58.94;98744.19;1085177;54;19974;-79
2023/03/24 03:02:19;;;;;;;;;;;;;;;14.91;58.91;98746.88;1085516;54;19953;-79
2023/03/24 03:03:33;;;;;;;;;;;;;;;14.97;58.42;98738.78;1085643;54;19947;-79
2023/03/24 03:04:38;;;;;;;;;;;;;;;15.01;58.54;98741.91;1086019;54;19946;-78
2023/03/24 03:05:46;;;;;;;;;;;;;;;14.95;58.66;98738.19;1085450;54;19958;-79
2023/03/24 03:06:51;;;;;;;;;;;;;;;14.91;58.62;98741.50;1085680;54;19970;-79
2023/03/24 03:07:56;;;;;;;;;;;;;;;14.87;58.62;98741.06;1086609;54;19950;-79
2023/03/24 03:09:00;;;;;;;;;;;;;;;14.85;58.73;98748.50;1085520;54;20000;-78
2023/03/24 03:10:06;;;;;;;;;;;;;;;14.86;58.79;98741.25;1085935;54;19978;-79
2023/03/24 03:11:11;;;;;;;;;;;;;;;14.85;58.89;98736.91;1086077;54;19950;-79
2023/03/24 03:12:21;;;;;;;;;;;;;;;14.87;58.93;98745.59;1086461;54;19958;-79
2023/03/24 03:13:26;;;;;;;;;;;;;;;14.90;58.71;98739.81;1086264;54;19981;-80
2023/03/24 03:14:49;;;;;;;;;;;;;;;14.85;58.88;98739.59;1086736;54;20003;-79
2023/03/24 03:15:57;;;;;;;;;;;;;;;14.85;58.74;98743.13;1086347;54;19951;-79
2023/03/24 03:17:03;;;;;;;;;;;;;;;14.84;58.66;98748.69;1086844;54;19947;-79
2023/03/24 03:18:10;;;;;;;;;;;;;;;14.82;58.74;98743.53;1086868;39;20696;-79
2023/03/24 03:19:16;;;;;;;;;;;;;;;14.85;58.50;98747.66;1086852;54;19951;-79
2023/03/24 03:20:23;;;;;;;;;;;;;;;14.75;58.47;98740.81;1086801;54;19950;-79
2023/03/24 03:21:26;;;;;;;;;;;;;;;14.82;58.25;98728.22;1086573;54;20536;-79
2023/03/24 03:22:34;;;;;;;;;;;;;;;14.85;58.35;98727.00;1086335;54;20687;-80
2023/03/24 03:23:36;;;;;;;;;;;;;;;14.89;58.26;98735.47;1087083;54;19942;-80
2023/03/24 03:24:42;;;;;;;;;;;;;;;14.81;58.35;98731.94;1087294;54;19959;-79
2023/03/24 03:25:49;;;;;;;;;;;;;;;14.81;58.28;98731.94;1086598;54;19951;-80
2023/03/24 03:26:53;;;;;;;;;;;;;;;14.86;58.19;98723.28;1086045;54;20073;-80
2023/03/24 03:27:59;;;;;;;;;;;;;;;14.88;58.27;98723.88;1086209;46;19969;-79
2023/03/24 03:29:05;;;;;;;;;;;;;;;14.85;57.95;98726.16;1085535;54;20666;-78
2023/03/24 03:30:12;;;;;;;;;;;;;;;14.89;57.69;98727.41;1085486;54;19947;-79
2023/03/24 03:31:17;;;;;;;;;;;;;;;14.89;57.93;98722.03;1085060;54;19946;-79
2023/03/24 03:32:23;;;;;;;;;;;;;;;14.87;57.97;98726.78;1085593;54;20033;-77
2023/03/24 03:33:30;;;;;;;;;;;;;;;14.86;57.10;98717.03;1085458;54;19958;-78
2023/03/24 03:34:36;;;;;;;;;;;;;;;14.90;57.13;98704.84;1084877;54;19950;-80
2023/03/24 03:35:42;;;;;;;;;;;;;;;15.00;57.06;98707.13;1085532;54;19953;-79
2023/03/24 03:36:47;;;;;;;;;;;;;;;14.98;57.11;98704.66;1085800;54;19946;-79
2023/03/24 03:37:54;;;;;;;;;;;;;;;14.95;57.20;98715.81;1085685;54;20485;-78
2023/03/24 03:38:59;;;;;;;;;;;;;;;14.93;57.11;98707.94;1086080;54;19947;-79
2023/03/24 03:40:08;;;;;;;;;;;;;;;14.98;57.10;98701.94;1087742;39;20389;-79
2023/03/24 03:41:10;;;;;;;;;;;;;;;15.00;57.00;98709.81;1086191;54;19946;-79
2023/03/24 03:42:15;;;;;;;;;;;;;;;15.00;57.20;98710.66;1085705;54;20031;-77
2023/03/24 03:43:19;;;;;;;;;;;;;;;15.01;56.98;98719.53;1085692;54;19951;-80
2023/03/24 03:44:36;;;;;;;;;;;;;;;15.00;57.21;98707.13;1086115;39;20369;-78
2023/03/24 03:45:38;;;;;;;;;;;;;;;14.98;57.06;98704.66;1086721;54;19935;-80
2023/03/24 03:46:52;;;;;;;;;;;;;;;15.01;56.52;98712.31;1086445;54;19946;-80
2023/03/24 03:47:53;;;;;;;;;;;;;;;15.08;56.53;98707.75;1088375;46;19974;-81
2023/03/24 03:49:00;;;;;;;;;;;;;;;15.13;56.42;98712.53;1088542;46;20032;-81
2023/03/24 03:50:01;;;;;;;;;;;;;;;15.10;56.80;98705.69;1088123;54;19943;-81
2023/03/24 03:51:05;;;;;;;;;;;;;;;15.12;56.24;98706.28;1088141;54;19973;-81
2023/03/24 03:52:07;;;;;;;;;;;;;;;15.17;56.57;98702.16;1088080;54;19966;-80
2023/03/24 03:53:19;;;;;;;;;;;;;;;15.17;56.42;98705.66;1087952;54;19933;-80
2023/03/24 03:54:21;;;;;;;;;;;;;;;15.18;56.32;98704.63;1088098;54;19935;-78
2023/03/24 03:55:31;;;;;;;;;;;;;;;15.18;56.35;98707.31;1087990;54;19949;-79
2023/03/24 03:56:33;;;;;;;;;;;;;;;15.18;56.11;98710.03;1088393;46;19961;-79
2023/03/24 03:57:57;;;;;;;;;;;;;;;15.21;56.01;98706.09;1089411;46;19954;-82
2023/03/24 03:59:02;;;;;;;;;;;;;;;15.20;56.21;98707.13;1087924;54;19950;-80
2023/03/24 04:00:10;;;;;;;;;;;;;;;15.17;56.22;98712.94;1087858;54;19942;-80
2023/03/24 04:01:15;;;;;;;;;;;;;;;15.21;56.23;98709.63;1089312;46;19939;-81
2023/03/24 04:02:31;;;;;;;;;;;;;;;15.23;56.07;98712.09;1088083;54;19943;-81
2023/03/24 04:03:43;;;;;;;;;;;;;;;15.23;56.13;98701.31;1087444;54;19966;-79
2023/03/24 04:05:12;;;;;;;;;;;;;;;15.29;55.88;98708.59;1087839;54;19946;-80
2023/03/24 04:06:18;;;;;;;;;;;;;;;15.25;55.91;98705.47;1087441;54;19947;-79
2023/03/24 04:07:27;;;;;;;;;;;;;;;15.29;55.62;98708.59;1092106;39;20295;-79
2023/03/24 04:08:32;;;;;;;;;;;;;;;15.26;56.09;98717.06;1087173;54;19943;-80
2023/03/24 04:09:42;;;;;;;;;;;;;;;15.30;55.83;98723.72;1086970;54;19946;-79
2023/03/24 04:11:05;;;;;;;;;;;;;;;15.32;56.06;98724.31;1087361;54;19946;-80
2023/03/24 04:12:19;;;;;;;;;;;;;;;15.34;56.02;98732.19;1087070;54;19950;-78
2023/03/24 04:13:23;;;;;;;;;;;;;;;15.32;55.76;98732.38;1085976;54;19956;-79
2023/03/24 04:14:57;;;;;;;;;;;;;;;15.30;55.72;98734.47;1086502;46;19946;-80
2023/03/24 04:16:08;;;;;;;;;;;;;;;15.30;55.71;98747.94;1085297;46;19951;-79
2023/03/24 04:17:18;;;;;;;;;;;;;;;15.29;55.72;98743.59;1085268;54;19950;-79
2023/03/24 04:18:30;;;;;;;;;;;;;;;15.38;55.88;98747.72;1085164;54;19947;-78
2023/03/24 04:19:40;;;;;;;;;;;;;;;15.37;55.90;98753.28;1085513;54;19975;-78
2023/03/24 04:20:45;;;;;;;;;;;;;;;15.41;55.72;98757.25;1085401;54;20041;-79
2023/03/24 04:22:03;;;;;;;;;;;;;;;15.38;55.44;98760.34;1085286;54;20002;-78
2023/03/24 04:23:08;;;;;;;;;;;;;;;15.39;55.58;98760.16;1085227;54;19985;-79
2023/03/24 04:24:25;;;;;;;;;;;;;;;15.38;55.59;98763.03;1085172;54;19969;-79
2023/03/24 04:25:29;;;;;;;;;;;;;;;15.34;55.89;98764.50;1085053;54;20689;-79
2023/03/24 04:26:40;;;;;;;;;;;;;;;15.33;55.53;98766.34;1085236;54;20061;-80
2023/03/24 04:27:45;;;;;;;;;;;;;;;15.28;56.03;98758.88;1085073;54;19958;-79
2023/03/24 04:28:56;;;;;;;;;;;;;;;15.36;56.01;98759.72;1085166;54;20018;-79
2023/03/24 04:30:02;;;;;;;;;;;;;;;15.37;55.72;98759.53;1085612;54;19992;-78
2023/03/24 04:31:24;;;;;;;;;;;;;;;15.34;55.91;98757.25;1085403;54;20520;-78
2023/03/24 04:32:31;;;;;;;;;;;;;;;15.35;56.04;98764.28;1085633;54;19946;-79
2023/03/24 04:33:39;;;;;;;;;;;;;;;15.33;56.18;98763.66;1086168;54;20469;-79
2023/03/24 04:34:43;;;;;;;;;;;;;;;15.38;56.39;98763.88;1086189;54;20572;-79
2023/03/24 04:35:51;;;;;;;;;;;;;;;15.38;56.34;98774.66;1090976;39;20568;-79
2023/03/24 04:36:54;;;;;;;;;;;;;;;15.36;56.44;98770.47;1086145;54;19943;-78
2023/03/24 04:37:57;;;;;;;;;;;;;;;15.41;56.04;98766.13;1086406;54;19939;-79
2023/03/24 04:39:08;;;;;;;;;;;;;;;15.34;56.49;98756.44;1085883;54;19954;-79
2023/03/24 04:40:10;;;;;;;;;;;;;;;15.29;56.60;98759.75;1085974;54;19946;-79
2023/03/24 04:41:24;;;;;;;;;;;;;;;15.30;56.32;98761.41;1085726;47;19947;-79
2023/03/24 04:42:27;;;;;;;;;;;;;;;15.34;56.01;98757.25;1085555;54;19947;-79
2023/03/24 04:43:34;;;;;;;;;;;;;;;15.34;56.02;98753.72;1086029;54;19966;-79
2023/03/24 04:44:40;;;;;;;;;;;;;;;15.37;56.38;98762.22;1086505;46;19942;-79
2023/03/24 04:45:48;;;;;;;;;;;;;;;15.28;55.93;98764.28;1086204;54;19951;-79
2023/03/24 04:46:50;;;;;;;;;;;;;;;15.31;56.16;98762.22;1085964;54;19947;-79
2023/03/24 04:47:58;;;;;;;;;;;;;;;15.32;56.10;98753.91;1086012;54;19995;-79
2023/03/24 04:49:02;;;;;;;;;;;;;;;15.36;56.20;98757.03;1085830;54;19947;-79
2023/03/24 04:50:08;;;;;;;;;;;;;;;15.33;55.95;98768.22;1085766;54;19970;-79
2023/03/24 04:51:11;;;;;;;;;;;;;;;15.28;56.08;98768.84;1086116;54;19950;-79
2023/03/24 04:52:14;;;;;;;;;;;;;;;15.27;56.27;98775.25;1086549;54;19947;-80
2023/03/24 04:53:18;;;;;;;;;;;;;;;15.30;56.41;98772.16;1086551;54;19947;-79
2023/03/24 04:54:22;;;;;;;;;;;;;;;15.34;56.05;98789.53;1086543;54;20284;-79
2023/03/24 04:55:42;;;;;;;;;;;;;;;15.23;56.62;98801.78;1086022;54;19957;-80
2023/03/24 04:56:47;;;;;;;;;;;;;;;15.13;56.97;98820.19;1086084;39;20353;-79
2023/03/24 04:57:58;;;;;;;;;;;;;;;15.21;57.19;98833.44;1086775;39;20303;-78
2023/03/24 04:59:02;;;;;;;;;;;;;;;14.98;57.90;98817.66;1085644;54;19946;-78
2023/03/24 05:00:06;;;;;;;;;;;;;;;14.91;57.89;98816.81;1085929;54;19947;-79
2023/03/24 05:01:10;;;;;;;;;;;;;;;14.96;58.14;98828.63;1087726;54;19950;-81
2023/03/24 05:02:16;;;;;;;;;;;;;;;15.03;57.97;98839.41;1087650;47;20003;-79
2023/03/24 05:03:19;;;;;;;;;;;;;;;15.10;58.18;98840.25;1091564;46;19950;-79
2023/03/24 05:04:30;;;;;;;;;;;;;;;15.13;57.91;98836.34;1087758;54;19950;-80
2023/03/24 05:05:31;;;;;;;;;;;;;;;15.16;57.88;98846.66;1087533;54;19923;-80
2023/03/24 05:06:35;;;;;;;;;;;;;;;15.18;57.42;98836.53;1086222;54;19951;-79
2023/03/24 05:07:36;;;;;;;;;;;;;;;15.18;58.07;98847.31;1085724;54;19973;-80
2023/03/24 05:08:40;;;;;;;;;;;;;;;15.18;57.81;98841.91;1088244;39;20465;-79
2023/03/24 05:09:41;;;;;;;;;;;;;;;15.09;58.62;98851.22;1086077;54;19958;-79
2023/03/24 05:10:48;;;;;;;;;;;;;;;15.15;58.42;98849.56;1085964;54;19951;-78
2023/03/24 05:11:49;;;;;;;;;;;;;;;15.19;58.13;98842.75;1085717;54;19951;-79
2023/03/24 05:12:54;;;;;;;;;;;;;;;15.04;58.86;98849.13;1085682;54;20554;-78
2023/03/24 05:13:55;;;;;;;;;;;;;;;14.93;59.54;98847.03;1086040;54;19946;-78
2023/03/24 05:15:00;;;;;;;;;;;;;;;14.88;60.10;98861.09;1085718;54;20798;-79
2023/03/24 05:16:02;;;;;;;;;;;;;;;14.84;60.88;98861.69;1085576;54;20050;-79
2023/03/24 05:17:05;;;;;;;;;;;;;;;14.86;60.82;98868.56;1085767;54;20031;-79
2023/03/24 05:18:08;;;;;;;;;;;;;;;14.93;60.67;98879.31;1086283;39;20443;-79
2023/03/24 05:19:14;;;;;;;;;;;;;;;14.76;61.98;98876.97;1086111;54;19947;-80
2023/03/24 05:20:15;;;;;;;;;;;;;;;14.79;62.13;98890.03;1086013;54;19951;-79
2023/03/24 05:21:19;;;;;;;;;;;;;;;14.76;62.95;98890.44;1086196;54;19974;-78
2023/03/24 05:22:20;;;;;;;;;;;;;;;14.84;63.17;98897.50;1085995;54;19946;-80
2023/03/24 05:23:24;;;;;;;;;;;;;;;14.66;64.87;98900.69;1086487;46;20650;-79
2023/03/24 05:24:43;;;;;;;;;;;;;;;14.62;65.52;98900.28;1086036;54;20037;-79
2023/03/24 05:25:47;;;;;;;;;;;;;;;14.54;66.56;98902.31;1086658;54;19951;-79
2023/03/24 05:27:13;;;;;;;;;;;;;;;14.57;66.79;98896.50;1086800;54;19939;-78
2023/03/24 05:28:19;;;;;;;;;;;;;;;14.41;67.89;98892.28;1087047;39;20378;-81
2023/03/24 05:29:22;;;;;;;;;;;;;;;14.32;68.47;98891.63;1086939;54;19958;-80
2023/03/24 05:30:26;;;;;;;;;;;;;;;14.26;68.93;98889.75;1087069;54;19947;-78
2023/03/24 05:31:29;;;;;;;;;;;;;;;14.31;68.73;98892.66;1087328;54;19946;-80
2023/03/24 05:32:37;;;;;;;;;;;;;;;14.24;68.89;98894.47;1087175;54;19978;-80
2023/03/24 05:33:41;;;;;;;;;;;;;;;14.30;68.91;98891.00;1087625;47;19970;-81
2023/03/24 05:34:45;;;;;;;;;;;;;;;14.17;70.10;98897.94;1087195;54;19969;-81
2023/03/24 05:35:48;;;;;;;;;;;;;;;14.19;69.77;98900.44;1087572;54;19974;-80
2023/03/24 05:36:49;;;;;;;;;;;;;;;14.16;70.73;98898.97;1087287;54;20437;-80
2023/03/24 05:37:53;;;;;;;;;;;;;;;14.10;70.72;98897.06;1092711;31;20791;-80
2023/03/24 05:40:40;;;;;;;;;;;;;;;14.04;71.18;98901.34;1088392;54;19978;-79
2023/03/24 05:41:41;;;;;;;;;;;;;;;14.08;70.99;98899.09;1087537;54;20089;-81
2023/03/24 05:44:16;;;;;;;;;;;;;;;14.09;70.58;98892.69;1087505;54;19961;-81
2023/03/24 05:46:50;;;;;;;;;;;;;;;13.95;71.93;98896.34;1087411;54;19927;-80
2023/03/24 05:48:24;;;;;;;;;;;;;;;13.94;71.96;98897.34;1087479;54;19957;-81
2023/03/24 05:49:25;;;;;;;;;;;;;;;14.01;71.81;98899.06;1087495;54;19947;-81
2023/03/24 05:50:33;;;;;;;;;;;;;;;13.98;71.79;98904.84;1087477;54;19962;-79
2023/03/24 05:51:35;;;;;;;;;;;;;;;13.93;72.81;98903.75;1087434;54;19943;-79
2023/03/24 05:52:52;;;;;;;;;;;;;;;13.83;73.35;98902.22;1087404;54;19978;-81
2023/03/24 05:53:53;;;;;;;;;;;;;;;13.73;73.83;98907.94;1087304;54;20003;-81
2023/03/24 05:55:06;;;;;;;;;;;;;;;13.67;74.20;98911.38;1087193;54;19953;-80
2023/03/24 05:56:11;;;;;;;;;;;;;;;13.65;74.13;98909.91;1091078;39;20444;-80
2023/03/24 05:57:13;;;;;;;;;;;;;;;13.66;74.39;98909.72;1087521;47;19939;-80
2023/03/24 05:58:23;;;;;;;;;;;;;;;13.61;74.93;98919.38;1087518;54;20440;-81
2023/03/24 05:59:24;;;;;;;;;;;;;;;13.72;74.08;98905.44;1087409;54;19938;-80
2023/03/24 06:02:07;;;;;;;;;;;;;;;13.69;74.61;98906.66;1088007;54;19942;-80
2023/03/24 06:03:08;;;;;;;;;;;;;;;13.63;75.27;98904.75;1088000;54;19939;-80
2023/03/24 06:04:29;;;;;;;;;;;;;;;13.62;75.38;98897.72;1088307;54;19950;-80
2023/03/24 06:05:33;;;;;;;;;;;;;;;13.54;76.02;98906.72;1088290;54;19933;-80
2023/03/24 06:06:44;;;;;;;;;;;;;;;13.55;75.94;98903.00;1088220;54;19934;-82
2023/03/24 06:07:45;;;;;;;;;;;;;;;13.51;76.34;98903.59;1088044;54;20490;-79
2023/03/24 06:10:32;;;;;;;;;;;;;;;13.51;76.08;98898.22;1088569;54;19915;-80
2023/03/24 06:38:03;;;;;;;;;;;;;;;13.66;77.54;98877.50;1077216;54;21365;-84
2023/03/24 06:39:09;;;;;;;;;;;;;;;13.73;76.89;98870.34;1088446;54;19923;-80
2023/03/24 06:40:13;;;;;;;;;;;;;;;13.73;77.38;98885.63;1088312;54;20537;-79
2023/03/24 06:41:31;;;;;;;;;;;;;;;13.71;77.12;98876.91;1088328;54;20473;-82
2023/03/24 06:42:32;;;;;;;;;;;;;;;13.78;76.47;98880.50;1092414;39;20358;-80
2023/03/24 06:43:37;;;;;;;;;;;;;;;13.80;76.26;98878.44;1088352;54;19946;-82
2023/03/24 06:44:38;;;;;;;;;;;;;;;13.81;76.40;98872.03;1089873;39;20385;-80
2023/03/24 06:45:42;;;;;;;;;;;;;;;13.84;76.37;98870.81;1088247;54;19923;-81
2023/03/24 06:47:07;;;;;;;;;;;;;;;13.88;75.83;98880.16;1088382;54;19974;-81
2023/03/24 06:48:09;;;;;;;;;;;;;;;13.91;75.62;98882.47;1088188;54;19942;-82
2023/03/24 06:52:15;;;;;;;;;;;;;;;14.00;74.73;98885.81;1088279;54;19927;-79
2023/03/24 06:53:27;;;;;;;;;;;;;;;14.03;74.93;98891.63;1088085;54;20446;-80
2023/03/24 06:54:31;;;;;;;;;;;;;;;14.05;74.55;98888.75;1088302;54;19950;-83
2023/03/24 06:55:55;;;;;;;;;;;;;;;14.05;74.78;98891.44;1088150;54;19954;-80
2023/03/24 06:56:57;;;;;;;;;;;;;;;14.06;75.13;98890.44;1088111;54;19975;-79
2023/03/24 06:58:02;;;;;;;;;;;;;;;14.08;75.04;98896.41;1087949;54;19945;-81
2023/03/24 06:59:03;;;;;;;;;;;;;;;14.05;75.31;98894.13;1088108;54;19946;-81
2023/03/24 07:00:13;;;;;;;;;;;;;;;13.96;76.72;98900.69;1088004;54;19923;-80
2023/03/24 07:01:14;;;;;;;;;;;;;;;13.96;75.93;98890.75;1088236;54;19939;-83
2023/03/24 07:02:42;;;;;;;;;;;;;;;13.91;76.81;98890.53;1088229;54;19943;-81
2023/03/24 07:03:58;;;;;;;;;;;;;;;13.85;76.95;98886.75;1087936;54;19946;-82
2023/03/24 07:05:04;;;;;;;;;;;;;;;13.78;77.06;98893.94;1088101;54;19935;-81
2023/03/24 07:06:08;;;;;;;;;;;;;;;13.73;77.59;98891.81;1088146;54;19970;-81
2023/03/24 07:12:02;;;;;;;;;;;;;;;13.66;77.88;98895.47;1087773;54;19946;-80
2023/03/24 07:13:18;;;;;;;;;;;;;;;13.64;78.09;98892.16;1088128;54;19941;-81
2023/03/24 07:14:59;;;;;;;;;;;;;;;13.66;78.26;98890.09;1087889;54;19999;-83
2023/03/24 07:16:02;;;;;;;;;;;;;;;13.53;78.72;98904.25;1087545;54;19951;-81
2023/03/24 07:20:36;;;;;;;;;;;;;;;13.65;78.29;98908.06;1087869;47;19961;-83
2023/03/24 07:21:48;;;;;;;;;;;;;;;13.66;78.01;98900.84;1087987;54;19951;-82
2023/03/24 07:22:52;;;;;;;;;;;;;;;13.68;78.52;98904.19;1087913;54;19950;-84
2023/03/24 07:23:56;;;;;;;;;;;;;;;13.63;78.88;98906.59;1087894;54;19931;-81
2023/03/24 07:25:03;;;;;;;;;;;;;;;13.63;78.77;98904.75;1087810;54;19949;-80
2023/03/24 07:40:21;;;;;;;;;;;;;;;13.60;80.22;98923.09;1087990;54;19939;-84
2023/03/24 07:41:38;;;;;;;;;;;;;;;13.56;81.03;98923.47;1088179;54;19943;-80
2023/03/24 07:42:40;;;;;;;;;;;;;;;13.63;80.64;98931.59;1088407;54;19950;-83
2023/03/24 07:43:48;;;;;;;;;;;;;;;13.56;80.44;98926.16;1088796;39;20404;-83
2023/03/24 07:49:26;;;;;;;;;;;;;;;13.54;80.60;98925.50;1088200;54;19935;-82
2023/03/24 07:52:05;;;;;;;;;;;;;;;13.53;80.82;98929.22;1088065;54;20049;-81
2023/03/24 07:53:29;;;;;;;;;;;;;;;13.52;81.32;98932.09;1087854;54;19998;-80
2023/03/24 07:54:31;;;;;;;;;;;;;;;13.52;80.86;98927.56;1088450;54;19927;-80
2023/03/24 07:57:09;;;;;;;;;;;;;;;13.61;80.49;98935.47;1088221;54;19942;-80
2023/03/24 08:01:38;;;;;;;;;;;;;;;13.63;80.03;98930.75;1087988;46;19950;-82
2023/03/24 08:15:37;;;;;;;;;;;;;;;13.80;79.02;98902.59;1087098;54;19942;-80
2023/03/24 08:16:41;;;;;;;;;;;;;;;13.81;78.86;98903.44;1086898;54;19974;-79
2023/03/24 08:17:42;;;;;;;;;;;;;;;13.78;79.18;98896.63;1087337;54;19947;-79
2023/03/24 08:20:23;;;;;;;;;;;;;;;13.80;78.99;98891.88;1086956;54;19923;-80